createdAt,value
2022-10-03T00:03:02.455Z,99054.41
2022-10-03T00:08:17.698Z,99056.97
2022-10-03T00:13:28.710Z,99064.75
2022-10-03T00:18:43.051Z,99065.75
2022-10-03T00:24:01.950Z,99069.53
2022-10-03T00:29:29.588Z,99081.94
2022-10-03T00:34:49.001Z,99082.16
2022-10-03T00:40:32.630Z,99087.63
2022-10-03T00:46:08.950Z,99091.19
2022-10-03T00:51:32.954Z,99092.44
2022-10-03T00:56:58.234Z,99093.28
2022-10-03T01:02:25.663Z,99104.31
2022-10-03T01:07:49.258Z,99099.78
2022-10-03T01:13:22.137Z,99098.50
2022-10-03T01:18:39.049Z,99099.50
2022-10-03T01:24:18.948Z,99096.91
2022-10-03T01:29:46.309Z,99084.78
2022-10-03T01:35:01.391Z,99087.88
2022-10-03T01:40:19.051Z,99088.94
2022-10-03T01:45:34.167Z,99101.09
2022-10-03T01:50:49.287Z,99100.88
2022-10-03T01:56:03.934Z,99105.41
2022-10-03T02:01:17.231Z,99105.91
2022-10-03T02:06:32.781Z,99099.19
2022-10-03T02:11:42.143Z,99106.91
2022-10-03T02:17:01.362Z,99115.78
2022-10-03T02:22:06.352Z,99130.91
2022-10-03T02:27:46.615Z,99124.75
2022-10-03T02:33:24.102Z,99122.38
2022-10-03T02:38:49.351Z,99127.03
2022-10-03T02:44:26.993Z,99137.09
2022-10-03T02:49:55.278Z,99134.44
2022-10-03T02:55:25.291Z,99147.44
2022-10-03T03:00:42.512Z,99142.50
2022-10-03T03:06:26.379Z,99149.81
2022-10-03T03:12:15.871Z,99148.78
2022-10-03T03:17:34.099Z,99153.31
2022-10-03T03:22:50.880Z,99160.97
2022-10-03T03:28:16.265Z,99163.22
2022-10-03T03:33:29.932Z,99159.81
2022-10-03T03:38:42.643Z,99162.72
2022-10-03T03:44:08.255Z,99166.31
2022-10-03T03:49:33.372Z,99180.75
2022-10-03T03:55:17.098Z,99167.88
2022-10-03T04:00:36.720Z,99175.88
2022-10-03T04:06:04.073Z,99176.56
2022-10-03T04:11:24.155Z,99180.56
2022-10-03T04:17:00.333Z,99186.50
2022-10-03T04:22:24.173Z,99181.69
2022-10-03T04:27:55.489Z,99188.97
2022-10-03T04:33:16.369Z,99197.66
2022-10-03T04:38:28.892Z,99193.75
2022-10-03T04:43:45.815Z,99193.31
2022-10-03T04:49:01.752Z,99191.34
2022-10-03T04:54:16.580Z,99189.91
2022-10-03T04:59:33.539Z,99195.22
2022-10-03T05:04:47.791Z,99200.00
2022-10-03T05:10:03.042Z,99206.31
2022-10-03T05:15:24.413Z,99202.75
2022-10-03T05:20:47.770Z,99191.28
2022-10-03T05:26:17.687Z,99210.34
2022-10-03T05:31:38.620Z,99204.53
2022-10-03T05:37:15.376Z,99213.94
2022-10-03T05:42:38.969Z,99226.44
2022-10-03T05:47:55.526Z,99222.44
2022-10-03T05:53:15.401Z,99225.75
2022-10-03T05:58:39.049Z,99234.09
2022-10-03T06:04:08.442Z,99247.06
2022-10-03T06:09:42.531Z,99248.47
2022-10-03T06:15:41.539Z,99259.50
2022-10-03T06:21:23.536Z,99261.50
2022-10-03T06:26:53.573Z,99270.16
2022-10-03T06:32:18.689Z,99255.31
2022-10-03T06:37:52.771Z,99271.06
2022-10-03T06:43:30.180Z,99282.22
2022-10-03T06:48:58.681Z,99288.31
2022-10-03T06:54:22.516Z,99296.81
2022-10-03T06:59:52.909Z,99297.47
2022-10-03T07:05:40.718Z,99300.06
2022-10-03T07:11:05.389Z,99306.13
2022-10-03T07:16:48.085Z,99317.69
2022-10-03T07:22:25.167Z,99311.72
2022-10-03T07:27:50.947Z,99317.66
2022-10-03T07:33:31.808Z,99309.00
2022-10-03T07:39:03.568Z,99312.16
2022-10-03T07:44:50.879Z,99318.22
2022-10-03T07:50:10.824Z,99318.81
2022-10-03T07:55:30.505Z,99321.81
2022-10-03T08:00:52.026Z,99321.72
2022-10-03T08:06:18.679Z,99332.16
2022-10-03T08:11:39.396Z,99328.94
2022-10-03T08:17:08.422Z,99337.81
2022-10-03T08:22:28.636Z,99338.31
2022-10-03T08:27:51.740Z,99347.03
2022-10-03T08:33:51.647Z,99353.16
2022-10-03T08:39:16.587Z,99351.38
2022-10-03T08:44:54.258Z,99353.44
2022-10-03T08:50:42.029Z,99348.31
2022-10-03T08:56:07.934Z,99351.66
2022-10-03T09:01:42.448Z,99351.00
2022-10-03T09:07:18.014Z,99358.28
2022-10-03T09:12:44.716Z,99356.50
2022-10-03T09:18:22.975Z,99358.97
2022-10-03T09:24:01.370Z,99359.25
2022-10-03T09:29:46.986Z,99353.09
2022-10-03T09:35:26.578Z,99364.97
2022-10-03T09:41:12.227Z,99374.28
2022-10-03T09:47:07.075Z,99364.44
2022-10-03T09:52:29.646Z,99364.66
2022-10-03T09:58:08.799Z,99368.25
2022-10-03T10:03:44.002Z,99366.59
2022-10-03T10:09:24.174Z,99374.09
2022-10-03T10:14:48.543Z,99364.19
2022-10-03T10:20:12.166Z,99373.19
2022-10-03T10:25:38.711Z,99362.22
2022-10-03T10:31:16.004Z,99368.09
2022-10-03T10:36:59.087Z,99363.88
2022-10-03T10:42:30.905Z,99364.53
2022-10-03T10:48:05.881Z,99378.31
2022-10-03T10:53:40.735Z,99372.50
2022-10-03T10:59:38.890Z,99364.06
2022-10-03T11:05:29.680Z,99376.16
2022-10-03T11:10:40.494Z,99368.13
2022-10-03T11:16:28.247Z,99365.13
2022-10-03T11:22:18.297Z,99361.69
2022-10-03T11:27:56.353Z,99376.91
2022-10-03T11:33:45.208Z,99375.28
2022-10-03T11:39:02.459Z,99376.94
2022-10-03T11:44:20.074Z,99373.97
2022-10-03T11:49:46.576Z,99393.25
2022-10-03T11:55:01.103Z,99379.63
2022-10-03T12:00:17.073Z,99372.25
2022-10-03T12:05:55.449Z,99381.09
2022-10-03T12:11:11.579Z,99375.94
2022-10-03T12:16:27.989Z,99387.13
2022-10-03T12:21:44.909Z,99383.53
2022-10-03T12:26:57.803Z,99381.00
2022-10-03T12:32:31.780Z,99382.16
2022-10-03T12:37:54.719Z,99385.28
2022-10-03T12:43:10.792Z,99382.66
2022-10-03T12:48:32.864Z,99382.38
2022-10-03T12:53:53.255Z,99389.09
2022-10-03T12:59:07.933Z,99386.19
2022-10-03T13:04:26.367Z,99386.72
2022-10-03T13:09:53.077Z,99380.59
2022-10-03T13:15:36.093Z,99381.00
2022-10-03T13:20:51.222Z,99372.63
2022-10-03T13:26:11.773Z,99367.56
2022-10-03T13:31:25.297Z,99370.00
2022-10-03T13:36:37.299Z,99358.16
2022-10-03T13:42:06.278Z,99363.88
2022-10-03T13:47:29.332Z,99359.56
2022-10-03T13:52:48.305Z,99366.44
2022-10-03T13:58:08.993Z,99368.78
2022-10-03T14:03:27.090Z,99372.38
2022-10-03T14:08:53.617Z,99387.09
2022-10-03T14:14:29.039Z,99397.19
2022-10-03T14:19:42.241Z,99388.97
2022-10-03T14:25:17.928Z,99396.53
2022-10-03T14:30:24.981Z,99388.59
2022-10-03T14:35:50.193Z,99375.84
2022-10-03T14:41:06.967Z,99376.59
2022-10-03T14:46:14.305Z,99381.06
2022-10-03T14:51:24.310Z,99381.91
2022-10-03T14:56:37.876Z,99386.66
2022-10-03T15:01:53.577Z,99376.31
2022-10-03T15:07:02.878Z,99378.28
2022-10-03T15:12:16.126Z,99382.31
2022-10-03T15:17:26.122Z,99365.63
2022-10-03T15:22:35.842Z,99383.88
2022-10-03T15:27:47.898Z,99374.63
2022-10-03T15:32:55.959Z,99371.78
2022-10-03T15:38:12.436Z,99369.72
2022-10-03T15:43:34.706Z,99367.81
2022-10-03T15:48:42.138Z,99376.47
2022-10-03T15:53:53.484Z,99367.13
2022-10-03T15:59:06.392Z,99363.81
2022-10-03T16:04:20.632Z,99354.34
2022-10-03T16:09:33.119Z,99363.34
2022-10-03T16:14:45.140Z,99369.56
2022-10-03T16:19:55.968Z,99356.91
2022-10-03T16:25:15.846Z,99363.09
2022-10-03T16:30:25.271Z,99353.78
2022-10-03T16:35:39.660Z,99358.22
2022-10-03T16:40:44.542Z,99356.59
2022-10-03T16:45:52.986Z,99362.22
2022-10-03T16:50:58.020Z,99365.16
2022-10-03T16:56:10.111Z,99369.84
2022-10-03T17:01:28.408Z,99377.78
2022-10-03T17:06:38.740Z,99387.28
2022-10-03T17:11:45.557Z,99379.25
2022-10-03T17:17:03.002Z,99384.16
2022-10-03T17:22:17.079Z,99389.31
2022-10-03T17:27:29.648Z,99375.88
2022-10-03T17:32:42.455Z,99393.69
2022-10-03T17:38:48.521Z,99384.41
2022-10-03T17:44:01.816Z,99389.72
2022-10-03T17:49:23.870Z,99398.63
2022-10-03T17:54:33.238Z,99388.34
2022-10-03T17:59:50.723Z,99384.97
2022-10-03T18:05:06.072Z,99380.13
2022-10-03T18:10:22.273Z,99389.44
2022-10-03T18:16:10.736Z,99386.56
2022-10-03T18:21:27.800Z,99386.47
2022-10-03T18:26:38.446Z,99377.75
2022-10-03T18:31:47.370Z,99381.72
2022-10-03T18:36:58.214Z,99386.84
2022-10-03T18:42:05.615Z,99392.31
2022-10-03T18:47:23.694Z,99395.06
2022-10-03T18:52:41.447Z,99389.25
2022-10-03T18:57:53.015Z,99385.69
2022-10-03T19:03:01.908Z,99382.41
2022-10-03T19:08:16.639Z,99374.28
2022-10-03T19:13:32.049Z,99373.50
2022-10-03T19:18:45.470Z,99374.91
2022-10-03T19:24:02.708Z,99369.19
2022-10-03T19:29:11.381Z,99373.91
2022-10-03T19:34:22.386Z,99369.59
2022-10-03T19:39:34.295Z,99375.09
2022-10-03T19:44:41.618Z,99387.56
2022-10-03T19:49:55.552Z,99384.09
2022-10-03T19:55:15.099Z,99384.69
2022-10-03T20:00:39.107Z,99381.03
2022-10-03T20:05:52.134Z,99381.03
2022-10-03T20:11:13.521Z,99385.59
2022-10-03T20:16:20.944Z,99384.97
2022-10-03T20:21:33.566Z,99376.69
2022-10-03T20:26:48.518Z,99377.88
2022-10-03T20:31:54.565Z,99371.44
2022-10-03T20:37:10.696Z,99376.56
2022-10-03T20:42:26.120Z,99366.38
2022-10-03T20:47:59.915Z,99369.84
2022-10-03T20:53:06.894Z,99373.50
2022-10-03T20:58:24.517Z,99380.03
2022-10-03T21:03:34.885Z,99372.13
2022-10-03T21:08:43.156Z,99375.69
2022-10-03T21:13:56.696Z,99376.09
2022-10-03T21:19:05.227Z,99377.38
2022-10-03T21:24:15.369Z,99367.41
2022-10-03T21:29:30.992Z,99361.56
2022-10-03T21:34:45.741Z,99373.00
2022-10-03T21:40:04.221Z,99362.75
2022-10-03T21:45:23.242Z,99360.06
2022-10-03T21:50:33.286Z,99360.38
2022-10-03T21:55:53.009Z,99358.00
2022-10-03T22:01:18.457Z,99361.28
2022-10-03T22:06:27.367Z,99363.94
2022-10-03T22:11:43.330Z,99364.72
2022-10-03T22:16:58.776Z,99359.00
2022-10-03T22:22:16.789Z,99363.53
2022-10-03T22:27:30.231Z,99357.50
2022-10-03T22:32:46.174Z,99353.66
2022-10-03T22:37:51.057Z,99354.81
2022-10-03T22:42:59.875Z,99355.69
2022-10-03T22:48:13.963Z,99347.81
2022-10-03T22:53:24.483Z,99351.47
2022-10-03T22:58:32.000Z,99346.53
2022-10-03T23:03:39.809Z,99346.63
2022-10-03T23:08:55.315Z,99351.78
2022-10-03T23:14:04.970Z,99352.06
2022-10-03T23:19:26.917Z,99349.28
2022-10-03T23:24:39.293Z,99350.19
2022-10-03T23:29:44.348Z,99348.59
2022-10-03T23:35:11.269Z,99345.75
2022-10-03T23:40:47.004Z,99348.00
2022-10-03T23:45:53.679Z,99353.44
2022-10-03T23:51:07.932Z,99345.44
2022-10-03T23:56:33.605Z,99353.66
